Observations for EAST MIDLANDS, United Kingdom (EGNX)

EGNX 221320Z 22007KT 9999 FEW020 04/01 Q0998
EGNX 221250Z 24010KT 9999 FEW030 03/00 Q0999
EGNX 221150Z 24010KT 9999 FEW028 03/00 Q1000
EGNX 221120Z 25009KT 9999 FEW028 03/01 Q1000
EGNX 221050Z 25012KT 9999 FEW029 03/01 Q1001
EGNX 221020Z 24011KT 9999 SCT025 02/01 Q1001
EGNX 220950Z 24011KT 9999 FEW035 02/01 Q1001
EGNX 220920Z 24009KT 9999 FEW028 01/00 Q1001
EGNX 220850Z 24011KT 9999 FEW023 00/M00 Q1001   
EGNX 220820Z 23011KT 9999 FEW022 00/M00 Q1001   
EGNX 220750Z 23010KT 9999 FEW022 00/M00 Q1001   
EGNX 220720Z 23011KT CAVOK 00/M01 Q1001 
EGNX 220650Z 23010KT CAVOK 00/M00 Q1001 
EGNX 220620Z 23009KT CAVOK 00/M00 Q1001 
EGNX 220550Z 23012KT CAVOK 00/M00 Q1001 
EGNX 220520Z 23011KT CAVOK 01/00 Q1001  
EGNX 220420Z 24012KT CAVOK 01/01 Q1001  
EGNX 220350Z 24012KT CAVOK 01/01 Q1001  
EGNX 220320Z 25013KT 9999 FEW021 02/01 Q1002
EGNX 220250Z 25013KT CAVOK 02/01 Q1002  
EGNX 220220Z 24014KT 9999 SCT007 03/02 Q1003
EGNX 220150Z 26014KT 9999 SCT020 BKN045 03/02 Q1003 
EGNX 220120Z 26014KT 9999 SCT011 BKN042 03/03 Q1003 RERA
EGNX 220050Z 22014KT 8000 RA BKN026 04/03 Q1003 
EGNX 220020Z 19016KT 8000 RA SCT009 BKN030 04/03 Q1003  
EGNX 212350Z 17017KT 150V210 8000 RA SCT007 BKN028 04/03 Q1004  
EGNX 212320Z 17015KT 150V220 9999 RA SCT010 BKN030 04/03 Q1004  
EGNX 212250Z 17014KT 150V220 9999 RA SCT016 BKN034 04/02 Q1005  
EGNX 212220Z 18013KT 9000 -RA SCT023 BKN038 04/02 Q1006 
EGNX 212150Z 17014KT 9999 SCT013 04/02 Q1007
EGNX 212120Z 17013KT 9999 SCT018 BKN033 04/02 Q1008 
EGNX 212050Z 18014KT 9999 SCT021 BKN036 03/02 Q1009 
EGNX 212020Z 19014KT 9999 SCT031 03/02 Q1010
EGNX 211950Z 18013KT 9999 FEW035 SCT047 03/01 Q1011 
EGNX 211920Z 18013KT 9999 FEW019 BKN029 03/01 Q1011 
EGNX 211850Z 18013KT 9999 FEW023 SCT042 03/01 Q1012 
EGNX 211820Z 18012KT 9999 FEW033 SCT040 03/00 Q1013 
EGNX 211750Z 19014KT 9999 FEW029 SCT044 04/01 Q1014 
EGNX 211720Z 19011KT 9999 SCT029 SCT044 04/01 Q1014 
EGNX 211650Z 19011KT 9999 FEW026 BKN039 04/01 Q1015 
EGNX 211620Z 20010KT 9999 SCT026 04/02 Q1016
EGNX 211550Z 20011KT 9999 FEW022 SCT038 04/02 Q1016 
EGNX 211520Z 20011KT 9999 SCT040 05/02 Q1017
EGNX 211450Z 21015KT 9999 SCT040 05/02 Q1017
EGNX 211420Z 20010KT 9000 SCT016 SCT041 05/02 Q1018 
EGNX 211320Z 21011KT 9999 SCT016 BKN041 05/03 Q1019 
EGNX 211250Z 21013KT 9000 FEW012 BKN042 05/04 Q1020